Time;durP1;ratioP1;P1;durP2;ratioP2;P2;SDS_P1;SDS_P2;PMS_P1;PMS_P2;Temp;Humidity;BMP_temperature;BMP_pressure;BME280_temperature;BME280_humidity;BME280_pressure;Samples;Min_cycle;Max_cycle;Signal;HPM_P1;HPM_P2
2022/03/16 00:00:37;;;;;;;12.27;4.77;;;5.60;99.90;;;;;;5023395;28;20455;-71
2022/03/16 00:03:06;;;;;;;7.37;6.40;;;5.60;99.90;;;;;;5016029;28;20449;-70
2022/03/16 00:05:34;;;;;;;6.50;4.70;;;5.40;99.90;;;;;;5016853;28;20447;-71
2022/03/16 00:08:00;;;;;;;9.60;5.53;;;5.30;99.90;;;;;;5014114;28;20539;-70
2022/03/16 00:10:27;;;;;;;9.87;4.37;;;5.40;99.90;;;;;;5012851;28;20469;-70
2022/03/16 00:12:54;;;;;;;8.87;7.17;;;5.40;99.90;;;;;;5020021;28;20464;-70
2022/03/16 00:15:20;;;;;;;7.63;5.00;;;5.50;99.90;;;;;;5016621;28;20435;-73
2022/03/16 00:17:47;;;;;;;9.47;7.07;;;5.40;99.90;;;;;;5012712;28;20447;-70
2022/03/16 00:20:14;;;;;;;7.07;4.80;;;5.40;99.90;;;;;;5014332;28;20724;-71
2022/03/16 00:22:42;;;;;;;11.50;9.30;;;5.40;99.90;;;;;;5020584;28;20995;-70
2022/03/16 00:25:10;;;;;;;9.87;5.33;;;5.40;99.90;;;;;;5021901;28;20437;-70
2022/03/16 00:27:37;;;;;;;9.87;5.60;;;5.30;99.90;;;;;;5009211;28;20455;-70
2022/03/16 00:30:05;;;;;;;5.50;4.53;;;5.30;99.90;;;;;;5017257;28;20458;-71
2022/03/16 00:32:32;;;;;;;6.80;4.33;;;5.30;99.90;;;;;;5013038;28;20517;-71
2022/03/16 00:34:58;;;;;;;12.00;6.20;;;5.40;99.90;;;;;;5018189;28;20779;-70
2022/03/16 00:37:27;;;;;;;7.23;5.20;;;5.40;99.90;;;;;;5012562;28;20491;-71
2022/03/16 00:39:55;;;;;;;8.97;5.47;;;5.30;99.90;;;;;;5017505;28;20459;-70
2022/03/16 00:42:22;;;;;;;6.97;4.97;;;5.30;99.90;;;;;;5011709;28;20737;-70
2022/03/16 00:44:48;;;;;;;8.30;5.47;;;5.10;99.90;;;;;;5016293;28;20532;-70
2022/03/16 00:47:15;;;;;;;5.17;3.73;;;5.10;99.90;;;;;;5009865;28;21010;-71
2022/03/16 00:49:42;;;;;;;5.40;3.80;;;5.10;99.90;;;;;;5017714;28;20463;-70
2022/03/16 00:52:09;;;;;;;5.27;3.70;;;5.10;99.90;;;;;;5017297;28;20517;-70
2022/03/16 00:54:36;;;;;;;7.97;4.40;;;4.90;99.90;;;;;;5009853;28;20518;-70
2022/03/16 00:57:05;;;;;;;4.60;3.80;;;4.80;99.90;;;;;;5015610;28;20463;-70
2022/03/16 00:59:31;;;;;;;5.43;3.67;;;4.80;99.90;;;;;;5016470;28;20526;-70
2022/03/16 01:01:58;;;;;;;7.77;5.63;;;4.90;99.90;;;;;;5021731;28;20892;-69
2022/03/16 01:04:25;;;;;;;5.10;3.83;;;4.90;99.90;;;;;;5019491;28;20556;-70
2022/03/16 01:06:53;;;;;;;13.30;6.40;;;4.90;99.90;;;;;;5013374;28;20915;-68
2022/03/16 01:09:20;;;;;;;7.40;4.00;;;4.90;99.90;;;;;;5011632;28;21081;-69
2022/03/16 01:11:46;;;;;;;5.47;4.30;;;5.00;99.90;;;;;;5011914;28;20838;-69
2022/03/16 01:14:14;;;;;;;7.57;5.37;;;4.90;99.90;;;;;;5018468;28;20564;-69
2022/03/16 01:16:41;;;;;;;5.73;4.83;;;4.90;99.90;;;;;;5019120;28;20980;-68
2022/03/16 01:19:08;;;;;;;4.80;3.40;;;4.90;99.90;;;;;;5012624;28;20669;-70
2022/03/16 01:21:35;;;;;;;7.33;4.47;;;4.70;99.90;;;;;;5011951;28;20512;-71
2022/03/16 01:24:02;;;;;;;8.33;5.10;;;4.60;99.90;;;;;;4992630;28;20945;-71
2022/03/16 01:26:29;;;;;;;7.67;5.30;;;4.70;99.90;;;;;;5001348;28;20461;-71
2022/03/16 01:28:55;;;;;;;6.73;5.10;;;4.80;99.90;;;;;;5012414;28;20569;-70
2022/03/16 01:31:23;;;;;;;6.80;4.40;;;4.80;99.90;;;;;;5002342;28;20884;-70
2022/03/16 01:33:50;;;;;;;9.27;4.27;;;4.70;99.90;;;;;;4974151;28;21675;-71
2022/03/16 01:36:17;;;;;;;5.87;3.83;;;4.50;99.90;;;;;;4978926;28;20551;-70
2022/03/16 01:38:44;;;;;;;5.60;4.20;;;4.60;99.90;;;;;;5004550;28;20461;-71
2022/03/16 01:41:11;;;;;;;6.80;5.43;;;4.60;99.90;;;;;;5019941;28;20495;-70
2022/03/16 01:43:37;;;;;;;4.50;3.93;;;4.50;99.90;;;;;;5023417;28;20453;-71
2022/03/16 01:46:04;;;;;;;6.03;4.20;;;4.30;99.90;;;;;;5025834;28;21334;-70
2022/03/16 01:48:32;;;;;;;4.87;4.37;;;4.40;99.90;;;;;;5024503;28;20576;-70
2022/03/16 01:50:59;;;;;;;8.60;4.47;;;4.50;99.90;;;;;;5018028;28;20536;-71
2022/03/16 01:53:26;;;;;;;6.50;3.90;;;4.40;99.90;;;;;;5029482;28;20569;-70
2022/03/16 01:55:53;;;;;;;8.40;5.60;;;4.30;99.90;;;;;;5010467;28;20471;-71
2022/03/16 01:58:20;;;;;;;7.67;4.90;;;4.10;99.90;;;;;;5020117;28;20521;-70
2022/03/16 02:00:47;;;;;;;9.67;4.80;;;4.10;99.90;;;;;;5030391;28;20459;-70
2022/03/16 02:03:16;;;;;;;4.70;3.20;;;4.30;99.90;;;;;;5030368;28;20536;-70
2022/03/16 02:05:44;;;;;;;7.00;4.17;;;4.30;99.90;;;;;;5030719;28;20459;-70
2022/03/16 02:08:11;;;;;;;9.80;5.10;;;4.30;99.90;;;;;;5022150;28;20574;-69
2022/03/16 02:10:38;;;;;;;7.37;4.33;;;4.20;99.90;;;;;;5023415;28;20475;-69
2022/03/16 02:13:09;;;;;;;4.70;3.70;;;4.20;99.90;;;;;;5022505;28;22106;-69
2022/03/16 02:15:35;;;;;;;9.40;4.40;;;4.10;99.90;;;;;;5018347;28;20458;-69
2022/03/16 02:18:02;;;;;;;6.13;4.10;;;4.10;99.90;;;;;;5021856;28;21568;-68
2022/03/16 02:20:29;;;;;;;5.13;4.10;;;4.10;99.90;;;;;;5014903;28;20495;-68
2022/03/16 02:22:59;;;;;;;5.60;4.67;;;4.20;99.90;;;;;;5016402;28;20485;-68
2022/03/16 02:25:28;;;;;;;13.50;6.27;;;4.30;99.90;;;;;;5019025;28;20459;-69
2022/03/16 02:27:56;;;;;;;6.80;5.57;;;4.30;99.90;;;;;;5019437;28;20484;-69
2022/03/16 02:30:23;;;;;;;6.90;4.30;;;4.20;99.90;;;;;;5017795;28;20807;-68
2022/03/16 02:32:50;;;;;;;7.13;5.23;;;4.20;99.90;;;;;;5020986;28;20483;-70
2022/03/16 02:35:18;;;;;;;5.80;3.80;;;4.40;99.90;;;;;;5018885;28;20463;-70
2022/03/16 02:37:44;;;;;;;6.90;4.47;;;4.40;99.90;;;;;;5024581;28;20573;-68
2022/03/16 02:40:18;;;;;;;7.23;4.97;;;4.20;99.90;;;;;;5016122;28;20506;-68
2022/03/16 02:42:44;;;;;;;10.03;4.83;;;4.10;99.90;;;;;;5024893;28;24016;-68
2022/03/16 02:45:11;;;;;;;7.60;3.97;;;4.20;99.90;;;;;;5024327;28;20967;-69
2022/03/16 02:47:39;;;;;;;10.43;4.97;;;4.10;99.90;;;;;;5020629;28;20608;-68
2022/03/16 02:50:06;;;;;;;8.40;5.23;;;4.10;99.90;;;;;;5021055;28;20900;-68
2022/03/16 02:52:33;;;;;;;6.47;4.20;;;4.10;99.90;;;;;;5024340;28;20499;-70
2022/03/16 02:55:00;;;;;;;6.90;4.07;;;4.00;99.90;;;;;;5016034;28;20463;-68
2022/03/16 02:57:28;;;;;;;9.57;4.50;;;4.00;99.90;;;;;;5027533;28;20483;-69
2022/03/16 02:59:55;;;;;;;6.10;4.57;;;4.00;99.90;;;;;;5022073;28;20553;-68
2022/03/16 03:02:22;;;;;;;6.43;3.73;;;4.00;99.90;;;;;;5023004;28;20986;-68
2022/03/16 03:04:49;;;;;;;4.27;3.50;;;4.00;99.90;;;;;;5019325;28;20488;-68
2022/03/16 03:07:15;;;;;;;5.80;4.70;;;3.90;99.90;;;;;;5016179;28;20962;-68
2022/03/16 03:09:42;;;;;;;5.63;3.87;;;3.70;99.90;;;;;;5023871;28;20518;-68
2022/03/16 03:12:13;;;;;;;5.57;4.97;;;3.80;99.90;;;;;;5026637;28;20465;-68
2022/03/16 03:14:41;;;;;;;3.60;3.17;;;3.70;99.90;;;;;;5031152;28;20464;-69
2022/03/16 03:17:08;;;;;;;7.93;3.97;;;3.60;99.90;;;;;;5016266;28;20562;-69
2022/03/16 03:19:35;;;;;;;6.03;4.23;;;3.60;99.90;;;;;;5023474;28;21237;-67
2022/03/16 03:22:04;;;;;;;5.30;4.10;;;3.50;99.90;;;;;;5017583;28;20513;-69
2022/03/16 03:24:31;;;;;;;6.67;5.97;;;3.70;99.90;;;;;;5018302;28;20973;-68
2022/03/16 03:26:59;;;;;;;5.43;4.50;;;3.70;99.90;;;;;;5019538;28;20511;-68
2022/03/16 03:29:26;;;;;;;6.47;4.70;;;3.70;99.90;;;;;;5024161;28;20444;-68
2022/03/16 03:31:54;;;;;;;4.60;4.00;;;3.70;99.90;;;;;;5029352;28;20471;-68
2022/03/16 03:34:21;;;;;;;10.10;3.73;;;3.70;99.90;;;;;;5014041;28;20459;-68
2022/03/16 03:36:48;;;;;;;6.70;5.10;;;3.80;99.90;;;;;;5022873;28;20800;-68
2022/03/16 03:39:14;;;;;;;13.90;6.00;;;3.70;99.90;;;;;;5018439;28;20588;-68
2022/03/16 03:41:42;;;;;;;5.67;4.40;;;3.80;99.90;;;;;;5016850;28;20510;-70
2022/03/16 03:44:08;;;;;;;10.73;6.33;;;3.80;99.90;;;;;;5020079;28;20919;-70
2022/03/16 03:46:35;;;;;;;7.00;3.90;;;3.80;99.90;;;;;;5026314;28;20463;-69
2022/03/16 03:49:03;;;;;;;7.23;3.97;;;3.80;99.90;;;;;;5014393;28;20514;-69
2022/03/16 03:51:30;;;;;;;4.97;3.83;;;3.80;99.90;;;;;;5021044;28;20495;-69
2022/03/16 03:53:56;;;;;;;7.77;3.87;;;3.90;99.90;;;;;;5022651;28;20456;-69
2022/03/16 03:56:23;;;;;;;7.63;4.37;;;3.60;99.90;;;;;;5026439;28;20467;-69
2022/03/16 03:58:49;;;;;;;6.73;3.97;;;3.60;99.90;;;;;;5026619;28;20568;-68
2022/03/16 04:01:17;;;;;;;6.13;3.53;;;3.60;99.90;;;;;;5028820;28;20544;-68
2022/03/16 04:03:43;;;;;;;5.53;4.23;;;3.70;99.90;;;;;;5021152;28;20461;-68
2022/03/16 04:06:12;;;;;;;8.60;5.90;;;3.80;99.90;;;;;;5019002;28;20482;-67
2022/03/16 04:08:38;;;;;;;5.20;4.00;;;3.80;99.90;;;;;;5014242;28;20616;-67
2022/03/16 04:11:05;;;;;;;5.87;4.97;;;3.80;99.90;;;;;;5027777;28;22330;-67
2022/03/16 04:13:32;;;;;;;7.13;4.90;;;3.90;99.90;;;;;;5017836;28;22370;-68
2022/03/16 04:15:59;;;;;;;7.50;5.53;;;4.00;99.90;;;;;;5020087;28;20578;-68
2022/03/16 04:18:27;;;;;;;6.67;4.50;;;3.90;99.90;;;;;;5017275;28;20890;-68
2022/03/16 04:20:54;;;;;;;4.93;4.23;;;3.90;99.90;;;;;;5013205;28;20566;-69
2022/03/16 04:23:22;;;;;;;11.80;7.50;;;3.90;99.90;;;;;;5020817;28;20467;-68
2022/03/16 04:25:49;;;;;;;6.47;4.87;;;3.90;99.90;;;;;;5021463;28;20455;-66
2022/03/16 04:28:16;;;;;;;12.57;6.37;;;3.90;99.90;;;;;;5013492;28;20541;-66
2022/03/16 04:30:43;;;;;;;7.30;4.67;;;4.00;99.90;;;;;;5020371;28;20541;-69
2022/03/16 04:33:09;;;;;;;9.57;5.10;;;4.00;99.90;;;;;;5020603;28;20882;-69
2022/03/16 04:35:36;;;;;;;10.10;5.10;;;4.10;99.90;;;;;;5011306;28;20567;-69
2022/03/16 04:38:03;;;;;;;6.63;4.30;;;4.00;99.90;;;;;;5015960;28;20572;-69
2022/03/16 04:40:31;;;;;;;8.93;4.73;;;4.00;99.90;;;;;;5008868;28;20596;-70
2022/03/16 04:42:58;;;;;;;6.20;4.70;;;4.00;99.90;;;;;;5020622;28;21286;-70
2022/03/16 04:45:24;;;;;;;4.50;4.07;;;4.00;99.90;;;;;;5011745;28;20520;-70
2022/03/16 04:47:51;;;;;;;10.10;7.50;;;4.00;99.90;;;;;;5022571;28;20532;-69
2022/03/16 04:50:18;;;;;;;8.40;4.90;;;4.00;99.90;;;;;;5016439;28;20463;-70
2022/03/16 04:52:45;;;;;;;6.83;4.57;;;4.00;99.90;;;;;;5011323;28;20474;-69
2022/03/16 04:55:12;;;;;;;11.77;5.63;;;4.00;99.90;;;;;;5008873;28;20455;-69
2022/03/16 04:57:41;;;;;;;7.00;5.40;;;3.90;99.90;;;;;;5018703;28;20879;-70
2022/03/16 05:00:08;;;;;;;5.00;4.50;;;3.90;99.90;;;;;;5014292;28;20694;-69
2022/03/16 05:02:36;;;;;;;5.30;4.80;;;4.00;99.90;;;;;;5011286;28;20752;-70
2022/03/16 05:05:04;;;;;;;7.47;4.50;;;4.00;99.90;;;;;;5014106;28;20434;-69
2022/03/16 05:07:31;;;;;;;7.50;5.33;;;3.90;99.90;;;;;;5016253;28;20533;-70
2022/03/16 05:09:58;;;;;;;11.27;5.50;;;3.90;99.90;;;;;;5028479;28;20499;-70
2022/03/16 05:12:24;;;;;;;12.40;4.80;;;4.00;99.90;;;;;;5028957;28;20460;-70
2022/03/16 05:14:53;;;;;;;4.23;3.60;;;4.00;99.90;;;;;;5040913;28;20434;-70
2022/03/16 05:17:19;;;;;;;10.33;6.80;;;4.00;99.90;;;;;;5029005;28;20551;-70
2022/03/16 05:19:48;;;;;;;5.60;4.97;;;3.90;99.90;;;;;;5017761;28;20525;-70
2022/03/16 05:22:15;;;;;;;6.80;3.23;;;3.90;99.90;;;;;;5036105;28;20458;-70
2022/03/16 05:24:41;;;;;;;6.97;5.13;;;4.00;99.90;;;;;;5033177;28;20470;-70
2022/03/16 05:27:08;;;;;;;6.60;4.63;;;4.10;99.90;;;;;;5028484;28;20458;-69
2022/03/16 05:29:34;;;;;;;12.13;5.10;;;4.00;99.90;;;;;;5027782;28;20576;-70
2022/03/16 05:32:03;;;;;;;10.37;3.97;;;3.90;99.90;;;;;;5026744;28;20438;-69
2022/03/16 05:34:29;;;;;;;8.47;5.03;;;3.90;99.90;;;;;;5031886;28;20435;-69
2022/03/16 05:36:56;;;;;;;9.23;5.77;;;3.90;99.90;;;;;;5027635;28;21031;-69
2022/03/16 05:39:23;;;;;;;6.90;4.00;;;3.80;99.90;;;;;;5030295;28;20475;-70
2022/03/16 05:41:49;;;;;;;9.23;5.17;;;3.80;99.90;;;;;;5023276;28;20480;-70
2022/03/16 05:44:16;;;;;;;8.87;6.00;;;3.80;99.90;;;;;;5025658;28;20554;-70
2022/03/16 05:46:43;;;;;;;7.37;4.23;;;3.80;99.90;;;;;;5020905;28;20422;-71
2022/03/16 05:49:11;;;;;;;6.97;6.27;;;3.80;99.90;;;;;;5024405;28;20495;-71
2022/03/16 05:51:38;;;;;;;7.80;6.10;;;4.00;99.90;;;;;;5021539;28;20835;-71
2022/03/16 05:54:04;;;;;;;7.63;5.33;;;4.00;99.90;;;;;;5029848;28;20445;-71
2022/03/16 05:56:32;;;;;;;8.10;3.70;;;4.00;99.90;;;;;;5029311;28;20456;-70
2022/03/16 05:58:58;;;;;;;10.37;4.43;;;4.00;99.90;;;;;;5038657;28;20475;-70
2022/03/16 06:01:25;;;;;;;16.17;6.73;;;4.00;99.90;;;;;;5038835;28;20464;-70
2022/03/16 06:03:52;;;;;;;7.47;5.77;;;4.00;99.90;;;;;;5029337;28;20565;-70
2022/03/16 06:06:20;;;;;;;13.03;5.97;;;3.90;99.90;;;;;;5040265;28;20441;-70
2022/03/16 06:08:47;;;;;;;10.93;5.43;;;3.90;99.90;;;;;;5037395;28;20465;-70
2022/03/16 06:11:13;;;;;;;10.70;6.47;;;4.00;99.90;;;;;;5029823;28;20800;-69
2022/03/16 06:13:40;;;;;;;7.50;5.60;;;4.00;99.90;;;;;;5031060;28;20474;-69
2022/03/16 06:16:07;;;;;;;6.73;5.07;;;4.10;99.90;;;;;;5032825;28;20881;-69
2022/03/16 06:18:33;;;;;;;6.20;4.97;;;4.10;99.90;;;;;;5028713;28;20545;-70
2022/03/16 06:21:00;;;;;;;8.03;6.27;;;4.10;99.90;;;;;;5037359;28;20568;-69
2022/03/16 06:23:28;;;;;;;7.77;5.83;;;4.10;99.90;;;;;;5034525;28;20426;-70
2022/03/16 06:25:55;;;;;;;4.70;4.30;;;4.10;99.90;;;;;;5024944;28;20446;-69
2022/03/16 06:28:22;;;;;;;9.83;4.50;;;4.10;99.90;;;;;;5031666;28;20450;-69
2022/03/16 06:30:48;;;;;;;5.60;4.57;;;4.20;99.90;;;;;;5029718;28;20783;-70
2022/03/16 06:33:15;;;;;;;7.67;3.40;;;4.10;99.90;;;;;;5029299;28;20467;-70
2022/03/16 06:35:42;;;;;;;5.77;2.50;;;4.20;99.90;;;;;;5031350;28;20865;-70
2022/03/16 06:38:08;;;;;;;4.20;2.47;;;4.20;99.90;;;;;;5030739;28;20613;-70
2022/03/16 06:40:36;;;;;;;4.67;4.00;;;4.10;99.90;;;;;;5031497;28;20483;-69
2022/03/16 06:43:03;;;;;;;7.17;4.17;;;4.20;99.90;;;;;;5036379;28;20467;-69
2022/03/16 06:45:30;;;;;;;3.07;2.73;;;4.20;99.90;;;;;;5025165;28;20507;-70
2022/03/16 06:47:58;;;;;;;3.70;3.23;;;4.20;99.90;;;;;;5032123;28;20474;-70
2022/03/16 06:50:27;;;;;;;5.43;2.53;;;4.30;99.90;;;;;;5032093;28;20500;-70
2022/03/16 06:52:56;;;;;;;2.63;2.10;;;4.30;99.90;;;;;;5027737;28;20847;-69
2022/03/16 06:55:23;;;;;;;4.00;3.70;;;4.30;99.90;;;;;;5026959;28;20964;-70
2022/03/16 06:57:51;;;;;;;5.90;2.17;;;4.30;99.90;;;;;;5034058;28;20462;-70
2022/03/16 07:00:18;;;;;;;8.73;5.77;;;4.30;99.90;;;;;;5038767;28;20446;-70
2022/03/16 07:02:56;;;;;;;5.20;4.80;;;4.40;99.90;;;;;;5032713;28;20519;-70
2022/03/16 07:05:27;;;;;;;8.13;3.40;;;4.50;99.90;;;;;;5031845;28;20474;-70
2022/03/16 07:07:55;;;;;;;6.23;3.80;;;4.70;99.90;;;;;;5033656;28;20566;-70
2022/03/16 07:10:21;;;;;;;3.73;2.93;;;4.70;99.90;;;;;;5029755;28;20458;-70
2022/03/16 07:12:48;;;;;;;6.43;4.60;;;4.80;99.90;;;;;;5026878;28;20464;-70
2022/03/16 07:15:17;;;;;;;15.13;4.20;;;4.90;99.90;;;;;;5029839;28;20438;-70
2022/03/16 07:17:43;;;;;;;6.80;4.63;;;4.90;99.90;;;;;;5036825;28;20527;-70
2022/03/16 07:20:11;;;;;;;8.17;3.30;;;5.10;99.90;;;;;;5039034;28;20491;-70
2022/03/16 07:22:38;;;;;;;3.67;3.20;;;5.20;99.90;;;;;;5031945;28;20549;-71
2022/03/16 07:25:09;;;;;;;11.90;5.13;;;5.20;99.90;;;;;;5036948;28;20460;-69
2022/03/16 07:27:36;;;;;;;3.63;2.90;;;5.30;99.90;;;;;;5036685;28;20452;-69
2022/03/16 07:30:04;;;;;;;8.37;4.37;;;5.40;99.90;;;;;;5033930;28;20452;-70
2022/03/16 07:32:32;;;;;;;3.47;2.77;;;5.50;99.90;;;;;;5031860;28;20837;-69
2022/03/16 07:34:58;;;;;;;6.47;4.10;;;5.60;99.90;;;;;;5038292;28;20488;-70
2022/03/16 07:37:25;;;;;;;2.57;1.70;;;5.70;99.90;;;;;;5035280;28;20454;-70
2022/03/16 07:39:52;;;;;;;9.10;5.37;;;6.10;99.90;;;;;;5035920;28;20434;-69
2022/03/16 07:42:18;;;;;;;1.73;1.60;;;6.20;99.90;;;;;;5039830;28;20546;-69
2022/03/16 07:44:45;;;;;;;4.00;3.50;;;6.40;99.90;;;;;;5034678;28;20441;-69
2022/03/16 07:47:12;;;;;;;10.90;5.80;;;6.60;99.90;;;;;;5035978;28;20491;-70
2022/03/16 07:49:40;;;;;;;7.87;5.33;;;7.10;99.90;;;;;;5036869;28;20480;-71
2022/03/16 07:52:07;;;;;;;2.10;1.70;;;7.30;99.90;;;;;;5033758;28;20442;-69
2022/03/16 07:54:34;;;;;;;6.00;4.77;;;7.40;99.90;;;;;;5039634;28;20464;-69
2022/03/16 07:57:01;;;;;;;8.73;5.17;;;7.80;99.90;;;;;;5035866;28;20430;-69
2022/03/16 07:59:27;;;;;;;5.80;3.73;;;8.10;99.90;;;;;;5041052;28;20458;-70
2022/03/16 08:01:54;;;;;;;6.73;5.23;;;8.30;99.90;;;;;;5042529;28;20486;-69
2022/03/16 08:04:21;;;;;;;8.10;5.53;;;8.30;99.90;;;;;;5030664;28;20476;-70
2022/03/16 08:06:49;;;;;;;11.07;6.80;;;8.30;99.90;;;;;;5036364;28;20874;-70
2022/03/16 08:09:16;;;;;;;8.07;4.83;;;8.30;99.90;;;;;;5034441;28;20439;-70
2022/03/16 08:11:42;;;;;;;4.20;2.90;;;8.50;99.90;;;;;;5033972;28;20512;-69
2022/03/16 08:14:09;;;;;;;13.33;8.00;;;8.80;99.90;;;;;;5034901;28;20513;-69
2022/03/16 08:16:35;;;;;;;9.00;4.73;;;8.90;99.90;;;;;;5038613;28;20492;-70
2022/03/16 08:19:02;;;;;;;4.30;3.20;;;9.00;99.90;;;;;;5035861;28;24335;-70
2022/03/16 08:21:29;;;;;;;1.90;1.50;;;9.10;99.90;;;;;;5031487;28;20906;-70
2022/03/16 08:23:57;;;;;;;4.33;2.80;;;9.30;99.90;;;;;;5036630;28;20487;-70
2022/03/16 08:26:24;;;;;;;6.60;4.67;;;9.50;99.90;;;;;;5030176;28;20550;-70
2022/03/16 08:28:51;;;;;;;9.13;5.00;;;9.70;99.90;;;;;;5036942;28;20461;-70
2022/03/16 08:31:18;;;;;;;4.17;2.97;;;10.00;99.90;;;;;;5037234;28;21045;-69
2022/03/16 08:33:45;;;;;;;6.97;4.70;;;10.20;99.90;;;;;;5025865;28;20513;-70
2022/03/16 08:36:12;;;;;;;5.97;4.70;;;10.30;99.90;;;;;;5033369;28;21289;-71
2022/03/16 08:38:40;;;;;;;7.67;3.90;;;10.60;99.90;;;;;;5033059;28;20564;-69
2022/03/16 08:41:10;;;;;;;4.10;2.90;;;11.30;99.90;;;;;;5037448;28;20812;-70
2022/03/16 08:43:37;;;;;;;3.60;3.30;;;11.60;99.90;;;;;;5036866;28;20487;-70
2022/03/16 08:46:04;;;;;;;12.00;6.10;;;11.50;99.90;;;;;;5030349;28;20769;-70
2022/03/16 08:48:32;;;;;;;6.47;3.53;;;11.90;99.90;;;;;;5036971;28;20498;-70
2022/03/16 08:50:58;;;;;;;3.20;2.90;;;12.40;99.90;;;;;;5033497;28;20430;-70
2022/03/16 08:53:25;;;;;;;10.33;3.67;;;12.50;99.90;;;;;;5034144;28;20491;-71
2022/03/16 08:55:52;;;;;;;7.50;4.83;;;13.00;99.90;;;;;;5026449;28;20465;-70
2022/03/16 08:58:20;;;;;;;3.87;3.10;;;13.10;99.90;;;;;;5038742;28;20487;-69
2022/03/16 09:00:47;;;;;;;7.53;4.30;;;13.00;99.90;;;;;;5036689;28;20464;-70
2022/03/16 09:03:13;;;;;;;3.73;3.10;;;13.50;99.90;;;;;;5033596;28;20936;-71
2022/03/16 09:05:40;;;;;;;8.57;4.60;;;13.70;99.90;;;;;;5032527;28;21003;-70
2022/03/16 09:08:07;;;;;;;6.80;4.43;;;14.00;99.90;;;;;;5034697;28;20545;-70
2022/03/16 09:10:34;;;;;;;6.50;3.47;;;14.20;99.90;;;;;;5031777;28;20489;-71
2022/03/16 09:13:00;;;;;;;9.40;5.20;;;14.40;99.90;;;;;;5036647;28;20505;-71
2022/03/16 09:15:28;;;;;;;11.33;6.80;;;14.80;99.90;;;;;;5033940;28;20539;-71
2022/03/16 09:17:55;;;;;;;10.07;4.87;;;15.10;99.90;;;;;;5043781;28;22343;-71
2022/03/16 09:20:22;;;;;;;7.13;3.20;;;15.80;99.90;;;;;;5038339;28;20455;-70
2022/03/16 09:22:49;;;;;;;4.73;3.63;;;16.00;99.90;;;;;;5041703;28;20541;-70
2022/03/16 09:25:15;;;;;;;6.60;4.60;;;15.70;99.90;;;;;;5033686;28;21039;-71
2022/03/16 09:27:42;;;;;;;9.67;4.87;;;15.20;99.90;;;;;;5040765;28;20533;-70
2022/03/16 09:30:10;;;;;;;5.83;3.30;;;15.70;99.90;;;;;;5041756;28;20471;-69
2022/03/16 09:32:39;;;;;;;8.40;5.60;;;15.90;99.90;;;;;;5042520;28;20462;-70
2022/03/16 09:35:07;;;;;;;3.73;2.43;;;15.90;99.90;;;;;;5035800;28;20470;-70
2022/03/16 09:37:34;;;;;;;6.30;4.33;;;16.20;99.90;;;;;;5035903;28;20479;-69
2022/03/16 09:40:02;;;;;;;3.03;1.80;;;16.20;99.90;;;;;;5036985;28;21137;-70
2022/03/16 09:42:30;;;;;;;5.50;3.83;;;15.80;99.90;;;;;;5033632;28;20564;-69
2022/03/16 09:45:00;;;;;;;3.60;2.60;;;15.50;99.90;;;;;;5037274;28;20467;-70
2022/03/16 09:47:27;;;;;;;10.33;5.43;;;15.10;99.90;;;;;;5040712;28;20542;-70
2022/03/16 09:49:55;;;;;;;23.50;6.07;;;15.00;99.90;;;;;;5041013;28;20878;-70
2022/03/16 09:52:24;;;;;;;7.07;4.53;;;15.00;99.90;;;;;;5039411;28;20464;-70
2022/03/16 09:54:50;;;;;;;9.63;4.07;;;15.10;99.90;;;;;;5042352;28;20452;-70
2022/03/16 09:57:17;;;;;;;8.60;5.27;;;15.10;99.90;;;;;;5036866;28;20482;-70
2022/03/16 09:59:44;;;;;;;7.30;5.00;;;14.50;99.90;;;;;;5038777;28;20455;-70
2022/03/16 10:02:17;;;;;;;7.00;3.87;;;14.00;99.90;;;;;;5039877;28;20483;-70
2022/03/16 10:04:47;;;;;;;9.27;5.63;;;14.10;99.90;;;;;;5030809;28;20459;-70
2022/03/16 10:07:15;;;;;;;8.77;6.30;;;14.50;99.90;;;;;;5040726;28;20491;-70
2022/03/16 10:15:16;;;;;;;8.57;5.83;;;15.60;99.90;;;;;;5029804;28;20527;-71
2022/03/16 10:17:46;;;;;;;7.60;6.17;;;16.00;99.90;;;;;;5034906;28;20538;-70
2022/03/16 10:20:26;;;;;;;8.10;5.90;;;16.70;99.90;;;;;;5039216;28;20470;-70
2022/03/16 10:23:05;;;;;;;7.20;5.87;;;16.90;99.90;;;;;;5038962;28;20476;-70
2022/03/16 10:25:35;;;;;;;9.60;6.00;;;18.10;99.90;;;;;;5037855;28;20482;-70
2022/03/16 10:28:14;;;;;;;10.00;6.00;;;18.50;99.90;;;;;;5030937;28;20650;-70
2022/03/16 10:30:55;;;;;;;10.33;4.60;;;18.80;99.90;;;;;;5038310;28;20814;-70
2022/03/16 10:33:22;;;;;;;6.53;4.57;;;18.30;99.90;;;;;;5031055;28;20559;-70
2022/03/16 10:36:01;;;;;;;9.67;7.57;;;18.20;99.90;;;;;;5030144;28;20455;-71
2022/03/16 10:38:30;;;;;;;6.50;5.73;;;19.00;99.90;;;;;;5026253;28;20491;-71
2022/03/16 10:41:10;;;;;;;5.27;4.20;;;20.10;99.60;;;;;;5028127;28;21015;-71
2022/03/16 10:46:38;;;;;;;8.17;5.47;;;19.30;96.80;;;;;;5034522;28;20463;-71
2022/03/16 10:49:07;;;;;;;4.50;3.40;;;19.80;96.30;;;;;;5040524;28;20482;-71
2022/03/16 10:51:34;;;;;;;5.60;3.10;;;20.60;94.40;;;;;;5042221;28;21178;-71
2022/03/16 10:54:04;;;;;;;3.27;2.77;;;21.30;92.40;;;;;;5043193;28;21206;-71
2022/03/16 10:56:32;;;;;;;6.60;2.37;;;20.60;91.00;;;;;;5034636;28;20491;-71
2022/03/16 10:59:00;;;;;;;3.90;3.00;;;19.90;91.40;;;;;;5033620;28;20943;-71
2022/03/16 11:01:27;;;;;;;4.53;3.40;;;20.20;91.60;;;;;;5034911;28;20904;-71
2022/03/16 11:03:58;;;;;;;7.27;4.47;;;20.90;90.20;;;;;;5039649;28;20464;-71
2022/03/16 11:06:26;;;;;;;6.70;4.00;;;21.60;85.60;;;;;;5038096;28;21382;-71
2022/03/16 11:08:55;;;;;;;5.07;3.90;;;21.90;84.00;;;;;;5042839;28;20912;-70
2022/03/16 11:14:11;;;;;;;4.13;3.63;;;22.70;78.80;;;;;;5040618;28;20822;-70
2022/03/16 11:16:38;;;;;;;4.90;3.80;;;22.00;77.60;;;;;;5046353;28;20467;-71
2022/03/16 11:19:06;;;;;;;5.13;4.63;;;21.50;77.40;;;;;;5037662;28;20471;-72
2022/03/16 11:21:45;;;;;;;2.93;2.00;;;21.80;78.10;;;;;;5040676;28;21719;-71
2022/03/16 11:24:17;;;;;;;4.43;2.83;;;21.40;77.10;;;;;;5037074;28;20824;-72
2022/03/16 11:27:09;;;;;;;5.40;4.30;;;21.20;78.70;;;;;;5044670;28;21187;-70
2022/03/16 11:29:46;;;;;;;8.30;5.23;;;21.00;79.20;;;;;;5043212;28;20490;-70
2022/03/16 11:32:15;;;;;;;6.00;5.03;;;20.70;80.30;;;;;;5036877;28;20459;-70
2022/03/16 11:34:48;;;;;;;5.07;4.13;;;21.50;79.70;;;;;;5032368;28;20633;-71
2022/03/16 11:37:15;;;;;;;4.20;3.37;;;22.50;76.10;;;;;;5039485;28;20593;-71
2022/03/16 11:39:44;;;;;;;6.60;4.47;;;23.40;75.60;;;;;;5039102;28;20456;-70
2022/03/16 11:42:17;;;;;;;3.27;2.83;;;22.80;71.50;;;;;;5032511;28;20582;-71
2022/03/16 11:44:44;;;;;;;8.20;4.37;;;22.50;72.70;;;;;;5040262;28;20463;-72
2022/03/16 11:47:35;;;;;;;6.73;4.73;;;23.00;73.40;;;;;;5043404;28;20540;-71
2022/03/16 11:50:07;;;;;;;6.30;3.43;;;24.20;69.10;;;;;;5044664;28;20520;-71
2022/03/16 11:53:03;;;;;;;7.10;5.70;;;24.30;65.20;;;;;;5040039;28;20459;-72
2022/03/16 11:55:45;;;;;;;6.67;5.23;;;23.40;65.60;;;;;;5038591;28;21071;-72
2022/03/16 11:58:33;;;;;;;7.00;6.27;;;24.50;66.40;;;;;;5042459;28;21250;-72
2022/03/16 12:01:23;;;;;;;4.90;2.10;;;24.40;63.40;;;;;;5036719;28;20455;-71
2022/03/16 12:03:58;;;;;;;2.97;2.20;;;22.40;64.80;;;;;;5032872;28;20526;-71
2022/03/16 12:06:29;;;;;;;6.30;3.17;;;22.00;66.60;;;;;;5043345;28;22512;-71
2022/03/16 12:09:02;;;;;;;6.60;4.53;;;21.60;68.30;;;;;;5034827;28;20502;-72
2022/03/16 12:15:18;;;;;;;3.80;3.07;;;23.70;62.80;;;;;;5031816;28;20455;-71
2022/03/16 12:18:31;;;;;;;3.33;2.83;;;23.10;62.80;;;;;;5037763;28;20479;-71
2022/03/16 12:21:06;;;;;;;4.10;3.70;;;22.50;64.40;;;;;;5039785;28;20464;-71
2022/03/16 12:29:35;;;;;;;4.97;2.90;;;23.20;63.20;;;;;;5041086;28;20457;-73
2022/03/16 12:32:03;;;;;;;4.27;3.60;;;22.60;63.00;;;;;;5040883;28;20483;-72
2022/03/16 12:34:30;;;;;;;5.17;4.13;;;23.40;61.30;;;;;;5044473;28;20455;-70
2022/03/16 12:37:01;;;;;;;3.50;1.80;;;23.60;61.20;;;;;;5032802;28;20463;-72
2022/03/16 12:39:29;;;;;;;3.77;3.37;;;22.10;60.20;;;;;;5039830;28;20852;-71
2022/03/16 12:44:55;;;;;;;3.57;3.23;;;20.20;66.10;;;;;;5038668;28;20501;-70
2022/03/16 12:47:30;;;;;;;4.00;3.03;;;20.70;66.10;;;;;;5034772;28;20528;-70
2022/03/16 12:49:57;;;;;;;4.87;3.63;;;20.90;65.70;;;;;;5034140;28;22296;-70
2022/03/16 12:52:23;;;;;;;3.90;2.67;;;20.90;66.00;;;;;;5037416;28;20568;-71
2022/03/16 12:54:50;;;;;;;3.87;3.33;;;21.00;65.80;;;;;;5035428;28;20460;-70
2022/03/16 12:57:17;;;;;;;5.60;3.50;;;21.40;63.70;;;;;;5037058;28;20484;-70
2022/03/16 12:59:46;;;;;;;5.17;3.87;;;21.20;65.20;;;;;;5040753;28;20549;-70
2022/03/16 13:02:14;;;;;;;5.87;5.23;;;21.30;64.50;;;;;;5044372;28;20478;-70
2022/03/16 13:04:42;;;;;;;5.30;4.00;;;21.30;65.00;;;;;;5041130;28;20972;-70
2022/03/16 13:07:09;;;;;;;5.27;4.73;;;22.40;66.20;;;;;;5042607;28;20482;-70
2022/03/16 13:09:38;;;;;;;7.40;2.30;;;22.20;63.70;;;;;;5040478;28;20460;-70
2022/03/16 13:12:07;;;;;;;9.63;4.13;;;21.90;63.90;;;;;;5040453;28;20946;-70
2022/03/16 13:14:36;;;;;;;3.27;2.97;;;21.70;62.90;;;;;;5033889;28;20482;-70
2022/03/16 13:17:04;;;;;;;5.77;3.57;;;22.00;61.70;;;;;;5042696;28;20895;-70
2022/03/16 13:19:33;;;;;;;4.63;3.30;;;21.90;62.90;;;;;;5039985;28;20629;-70
2022/03/16 13:22:05;;;;;;;4.70;3.33;;;21.70;62.30;;;;;;5035183;28;20458;-71